sensor_id;sensor_type;location;lat;lon;timestamp;pressure;altitude;pressure_sealevel;temperature;humidity
54546;BME280;40444;45.184;9.850;2022-08-03T00:00:31;100983.47;;;24.77;64.81
54546;BME280;40444;45.184;9.850;2022-08-03T00:03:00;100976.97;;;24.71;65.07
54546;BME280;40444;45.184;9.850;2022-08-03T00:05:29;100974.25;;;24.64;65.38
54546;BME280;40444;45.184;9.850;2022-08-03T00:08:01;100972.19;;;24.60;65.14
54546;BME280;40444;45.184;9.850;2022-08-03T00:10:32;100974.75;;;24.55;65.55
54546;BME280;40444;45.184;9.850;2022-08-03T00:13:00;100969.75;;;24.52;65.62
54546;BME280;40444;45.184;9.850;2022-08-03T00:15:29;100975.66;;;24.49;65.79
54546;BME280;40444;45.184;9.850;2022-08-03T00:17:59;100967.84;;;24.45;65.88
54546;BME280;40444;45.184;9.850;2022-08-03T00:20:27;100968.94;;;24.44;65.90
54546;BME280;40444;45.184;9.850;2022-08-03T00:22:56;100967.25;;;24.43;65.67
54546;BME280;40444;45.184;9.850;2022-08-03T00:25:25;100966.41;;;24.43;65.87
54546;BME280;40444;45.184;9.850;2022-08-03T00:27:53;100969.59;;;24.40;65.50
54546;BME280;40444;45.184;9.850;2022-08-03T00:30:22;100962.84;;;24.36;65.88
54546;BME280;40444;45.184;9.850;2022-08-03T00:32:58;100959.50;;;24.34;65.66
54546;BME280;40444;45.184;9.850;2022-08-03T00:35:27;100959.69;;;24.32;65.96
54546;BME280;40444;45.184;9.850;2022-08-03T00:38:15;100961.59;;;24.32;66.01
54546;BME280;40444;45.184;9.850;2022-08-03T00:40:44;100958.00;;;24.31;65.87
54546;BME280;40444;45.184;9.850;2022-08-03T00:43:14;100964.16;;;24.27;66.12
54546;BME280;40444;45.184;9.850;2022-08-03T00:45:42;100955.53;;;24.23;66.61
54546;BME280;40444;45.184;9.850;2022-08-03T00:48:12;100954.69;;;24.23;66.23
54546;BME280;40444;45.184;9.850;2022-08-03T00:50:59;100961.22;;;24.21;66.30
54546;BME280;40444;45.184;9.850;2022-08-03T00:53:30;100951.53;;;24.19;65.92
54546;BME280;40444;45.184;9.850;2022-08-03T00:55:58;100957.47;;;24.16;66.35
54546;BME280;40444;45.184;9.850;2022-08-03T00:58:27;100952.66;;;24.11;66.86
54546;BME280;40444;45.184;9.850;2022-08-03T01:00:55;100955.59;;;24.10;66.81
54546;BME280;40444;45.184;9.850;2022-08-03T01:03:24;100952.03;;;24.09;66.40
54546;BME280;40444;45.184;9.850;2022-08-03T01:05:59;100952.66;;;24.05;66.80
54546;BME280;40444;45.184;9.850;2022-08-03T01:08:53;100952.44;;;24.06;66.93
54546;BME280;40444;45.184;9.850;2022-08-03T01:11:37;100955.00;;;24.01;67.22
54546;BME280;40444;45.184;9.850;2022-08-03T01:14:54;100953.09;;;24.02;67.01
54546;BME280;40444;45.184;9.850;2022-08-03T01:17:36;100951.66;;;23.99;67.08
54546;BME280;40444;45.184;9.850;2022-08-03T01:20:13;100947.00;;;24.00;67.15
54546;BME280;40444;45.184;9.850;2022-08-03T01:23:16;100950.59;;;24.00;66.74
54546;BME280;40444;45.184;9.850;2022-08-03T01:26:02;100950.38;;;24.02;67.04
54546;BME280;40444;45.184;9.850;2022-08-03T01:31:18;100951.66;;;23.99;67.11
54546;BME280;40444;45.184;9.850;2022-08-03T01:33:52;100946.19;;;23.99;67.32
54546;BME280;40444;45.184;9.850;2022-08-03T01:36:29;100956.28;;;23.99;66.86
54546;BME280;40444;45.184;9.850;2022-08-03T01:39:02;100937.97;;;23.99;67.12
54546;BME280;40444;45.184;9.850;2022-08-03T01:41:36;100935.47;;;23.98;67.56
54546;BME280;40444;45.184;9.850;2022-08-03T01:44:08;100943.88;;;23.96;67.31
54546;BME280;40444;45.184;9.850;2022-08-03T01:46:59;100944.09;;;23.94;67.40
54546;BME280;40444;45.184;9.850;2022-08-03T01:49:29;100944.53;;;23.91;67.72
54546;BME280;40444;45.184;9.850;2022-08-03T01:51:59;100930.22;;;23.89;67.55
54546;BME280;40444;45.184;9.850;2022-08-03T01:54:44;100924.94;;;23.88;67.26
54546;BME280;40444;45.184;9.850;2022-08-03T01:57:15;100927.06;;;23.86;67.60
54546;BME280;40444;45.184;9.850;2022-08-03T01:59:46;100927.06;;;23.86;67.10
54546;BME280;40444;45.184;9.850;2022-08-03T02:02:16;100925.59;;;23.83;67.67
54546;BME280;40444;45.184;9.850;2022-08-03T02:05:03;100931.06;;;23.83;67.41
54546;BME280;40444;45.184;9.850;2022-08-03T02:07:39;100927.31;;;23.84;67.78
54546;BME280;40444;45.184;9.850;2022-08-03T02:10:10;100921.19;;;23.82;67.85
54546;BME280;40444;45.184;9.850;2022-08-03T02:12:42;100915.94;;;23.81;67.63
54546;BME280;40444;45.184;9.850;2022-08-03T02:15:15;100911.72;;;23.78;68.11
54546;BME280;40444;45.184;9.850;2022-08-03T02:17:46;100916.59;;;23.76;68.15
54546;BME280;40444;45.184;9.850;2022-08-03T02:20:15;100923.97;;;23.76;68.22
54546;BME280;40444;45.184;9.850;2022-08-03T02:22:44;100923.56;;;23.72;68.66
54546;BME280;40444;45.184;9.850;2022-08-03T02:25:16;100917.44;;;23.70;68.46
54546;BME280;40444;45.184;9.850;2022-08-03T02:28:06;100918.28;;;23.70;68.28
54546;BME280;40444;45.184;9.850;2022-08-03T02:30:37;100920.81;;;23.72;68.47
54546;BME280;40444;45.184;9.850;2022-08-03T02:33:10;100925.66;;;23.70;68.77
54546;BME280;40444;45.184;9.850;2022-08-03T02:35:40;100923.56;;;23.72;68.66
54546;BME280;40444;45.184;9.850;2022-08-03T02:38:12;100920.81;;;23.65;69.25
54546;BME280;40444;45.184;9.850;2022-08-03T02:40:43;100921.66;;;23.66;69.02
54546;BME280;40444;45.184;9.850;2022-08-03T02:43:16;100921.88;;;23.64;69.24
54546;BME280;40444;45.184;9.850;2022-08-03T02:45:48;100921.88;;;23.64;69.18
54546;BME280;40444;45.184;9.850;2022-08-03T02:48:21;100927.56;;;23.63;69.02
54546;BME280;40444;45.184;9.850;2022-08-03T02:50:52;100923.34;;;23.60;69.04
54546;BME280;40444;45.184;9.850;2022-08-03T02:53:22;100928.00;;;23.53;69.19
54546;BME280;40444;45.184;9.850;2022-08-03T02:55:52;100929.28;;;23.51;69.62
54546;BME280;40444;45.184;9.850;2022-08-03T02:58:23;100922.72;;;23.52;69.27
54546;BME280;40444;45.184;9.850;2022-08-03T03:00:52;100925.28;;;23.53;69.31
54546;BME280;40444;45.184;9.850;2022-08-03T03:03:22;100926.13;;;23.54;69.67
54546;BME280;40444;45.184;9.850;2022-08-03T03:05:55;100922.72;;;23.52;69.55
54546;BME280;40444;45.184;9.850;2022-08-03T03:08:26;100926.53;;;23.51;69.82
54546;BME280;40444;45.184;9.850;2022-08-03T03:10:58;100925.91;;;23.49;69.65
54546;BME280;40444;45.184;9.850;2022-08-03T03:13:31;100931.38;;;23.49;69.90
54546;BME280;40444;45.184;9.850;2022-08-03T03:16:02;100924.84;;;23.50;69.97
54546;BME280;40444;45.184;9.850;2022-08-03T03:18:32;100924.84;;;23.50;70.17
54546;BME280;40444;45.184;9.850;2022-08-03T03:21:03;100933.47;;;23.46;70.05
54546;BME280;40444;45.184;9.850;2022-08-03T03:23:34;100930.13;;;23.44;70.33
54546;BME280;40444;45.184;9.850;2022-08-03T03:26:04;100932.66;;;23.39;70.92
54546;BME280;40444;45.184;9.850;2022-08-03T03:28:34;100934.16;;;23.35;71.20
54546;BME280;40444;45.184;9.850;2022-08-03T03:31:05;100928.91;;;23.27;71.80
54546;BME280;40444;45.184;9.850;2022-08-03T03:33:35;100933.75;;;23.18;72.08
54546;BME280;40444;45.184;9.850;2022-08-03T03:36:05;100939.22;;;23.12;72.51
54546;BME280;40444;45.184;9.850;2022-08-03T03:38:33;100941.97;;;23.05;72.88
54546;BME280;40444;45.184;9.850;2022-08-03T03:41:02;100940.69;;;23.01;73.00
54546;BME280;40444;45.184;9.850;2022-08-03T03:43:33;100931.25;;;22.97;72.71
54546;BME280;40444;45.184;9.850;2022-08-03T03:46:01;100937.34;;;22.92;72.97
54546;BME280;40444;45.184;9.850;2022-08-03T03:48:31;100934.38;;;22.87;73.15
54546;BME280;40444;45.184;9.850;2022-08-03T03:51:00;100945.72;;;22.84;73.40
54546;BME280;40444;45.184;9.850;2022-08-03T03:53:29;100946.34;;;22.80;74.26
54546;BME280;40444;45.184;9.850;2022-08-03T03:55:57;100948.63;;;22.76;74.59
54546;BME280;40444;45.184;9.850;2022-08-03T03:58:30;100953.28;;;22.76;74.79
54546;BME280;40444;45.184;9.850;2022-08-03T20:10:09;100779.34;;;28.83;49.34
54546;BME280;40444;45.184;9.850;2022-08-03T20:12:39;100780.50;;;28.87;49.96
54546;BME280;40444;45.184;9.850;2022-08-03T20:15:08;100784.69;;;28.90;50.24
54546;BME280;40444;45.184;9.850;2022-08-03T20:17:38;100786.69;;;28.94;50.30
54546;BME280;40444;45.184;9.850;2022-08-03T20:20:34;100797.22;;;28.98;50.93
54546;BME280;40444;45.184;9.850;2022-08-03T20:23:09;100791.72;;;28.98;51.38
54546;BME280;40444;45.184;9.850;2022-08-03T20:25:44;100786.19;;;28.98;51.41
54546;BME280;40444;45.184;9.850;2022-08-03T20:28:49;100788.84;;;28.92;51.29
54546;BME280;40444;45.184;9.850;2022-08-03T20:31:21;100789.38;;;28.89;51.08
54546;BME280;40444;45.184;9.850;2022-08-03T20:34:04;100787.88;;;28.82;51.52
54546;BME280;40444;45.184;9.850;2022-08-03T20:36:33;100792.25;;;28.78;51.93
54546;BME280;40444;45.184;9.850;2022-08-03T20:39:01;100796.59;;;28.74;51.87
54546;BME280;40444;45.184;9.850;2022-08-03T20:41:34;100787.16;;;28.69;52.39
54546;BME280;40444;45.184;9.850;2022-08-03T20:44:04;100797.00;;;28.65;52.85
54546;BME280;40444;45.184;9.850;2022-08-03T20:46:33;100786.75;;;28.61;52.99
54546;BME280;40444;45.184;9.850;2022-08-03T20:49:30;100792.78;;;28.58;52.63
54546;BME280;40444;45.184;9.850;2022-08-03T20:52:13;100788.84;;;28.54;52.43
54546;BME280;40444;45.184;9.850;2022-08-03T20:54:50;100795.34;;;28.48;52.01
54546;BME280;40444;45.184;9.850;2022-08-03T20:57:26;100794.19;;;28.43;52.37
54546;BME280;40444;45.184;9.850;2022-08-03T21:00:05;100797.94;;;28.37;52.45
54546;BME280;40444;45.184;9.850;2022-08-03T21:03:05;100801.16;;;28.34;52.00
54546;BME280;40444;45.184;9.850;2022-08-03T21:06:05;100808.53;;;28.29;52.58
54546;BME280;40444;45.184;9.850;2022-08-03T21:08:39;100804.84;;;28.23;53.46
54546;BME280;40444;45.184;9.850;2022-08-03T21:11:17;100814.69;;;28.19;53.64
54546;BME280;40444;45.184;9.850;2022-08-03T21:14:01;100809.34;;;28.12;53.26
54546;BME280;40444;45.184;9.850;2022-08-03T21:16:38;100814.53;;;28.09;53.39
54546;BME280;40444;45.184;9.850;2022-08-03T21:19:06;100808.16;;;28.08;53.31
54546;BME280;40444;45.184;9.850;2022-08-03T21:21:38;100812.00;;;28.07;52.88
54546;BME280;40444;45.184;9.850;2022-08-03T21:24:11;100819.91;;;28.04;53.52
54546;BME280;40444;45.184;9.850;2022-08-03T21:26:40;100813.84;;;28.02;53.37
54546;BME280;40444;45.184;9.850;2022-08-03T21:29:10;100813.50;;;27.98;53.65
54546;BME280;40444;45.184;9.850;2022-08-03T21:31:41;100809.81;;;27.92;54.02
54546;BME280;40444;45.184;9.850;2022-08-03T21:34:10;100808.28;;;27.85;54.45
54546;BME280;40444;45.184;9.850;2022-08-03T21:36:40;100815.63;;;27.79;54.26
54546;BME280;40444;45.184;9.850;2022-08-03T21:39:09;100818.84;;;27.76;54.61
54546;BME280;40444;45.184;9.850;2022-08-03T21:41:38;100818.50;;;27.73;54.54
54546;BME280;40444;45.184;9.850;2022-08-03T21:44:11;100823.66;;;27.69;54.54
54546;BME280;40444;45.184;9.850;2022-08-03T21:46:42;100827.97;;;27.65;54.64
54546;BME280;40444;45.184;9.850;2022-08-03T21:49:23;100824.88;;;27.61;55.34
54546;BME280;40444;45.184;9.850;2022-08-03T21:52:45;100832.69;;;27.53;55.23
54546;BME280;40444;45.184;9.850;2022-08-03T21:55:15;100824.31;;;27.48;55.90
54546;BME280;40444;45.184;9.850;2022-08-03T21:57:52;100832.22;;;27.44;55.60
54546;BME280;40444;45.184;9.850;2022-08-03T22:00:21;100837.00;;;27.37;56.04
54546;BME280;40444;45.184;9.850;2022-08-03T22:02:54;100839.44;;;27.33;56.15
54546;BME280;40444;45.184;9.850;2022-08-03T22:05:26;100840.16;;;27.29;56.58
54546;BME280;40444;45.184;9.850;2022-08-03T22:08:12;100844.47;;;27.25;56.18
54546;BME280;40444;45.184;9.850;2022-08-03T22:10:44;100847.44;;;27.23;56.20
54546;BME280;40444;45.184;9.850;2022-08-03T22:13:15;100847.34;;;27.18;57.12
54546;BME280;40444;45.184;9.850;2022-08-03T22:16:05;100849.25;;;27.17;56.61
54546;BME280;40444;45.184;9.850;2022-08-03T22:18:35;100846.16;;;27.14;56.61
54546;BME280;40444;45.184;9.850;2022-08-03T22:21:06;100851.53;;;27.09;56.75
54546;BME280;40444;45.184;9.850;2022-08-03T22:23:41;100851.41;;;27.04;57.60
54546;BME280;40444;45.184;9.850;2022-08-03T22:26:19;100848.06;;;27.02;57.58
54546;BME280;40444;45.184;9.850;2022-08-03T22:29:06;100854.88;;;26.99;57.02
54546;BME280;40444;45.184;9.850;2022-08-03T22:35:19;100857.50;;;26.94;57.03
54546;BME280;40444;45.184;9.850;2022-08-03T22:37:48;100856.41;;;26.95;57.35
54546;BME280;40444;45.184;9.850;2022-08-03T22:40:20;100857.50;;;26.94;57.65
54546;BME280;40444;45.184;9.850;2022-08-03T22:48:01;100865.84;;;26.87;58.56
54546;BME280;40444;45.184;9.850;2022-08-03T22:50:31;100880.09;;;26.84;59.06
54546;BME280;40444;45.184;9.850;2022-08-03T22:53:01;100877.25;;;26.79;58.52
54546;BME280;40444;45.184;9.850;2022-08-03T22:55:30;100877.94;;;26.75;59.41
54546;BME280;40444;45.184;9.850;2022-08-03T22:57:59;100877.34;;;26.73;60.14
54546;BME280;40444;45.184;9.850;2022-08-03T23:00:27;100885.47;;;26.67;60.91
54546;BME280;40444;45.184;9.850;2022-08-03T23:02:59;100878.16;;;26.61;61.49
54546;BME280;40444;45.184;9.850;2022-08-03T23:05:32;100879.47;;;26.59;62.03
54546;BME280;40444;45.184;9.850;2022-08-03T23:08:23;100884.00;;;26.53;62.06
54546;BME280;40444;45.184;9.850;2022-08-03T23:10:55;100878.13;;;26.50;61.04
54546;BME280;40444;45.184;9.850;2022-08-03T23:13:30;100887.69;;;26.47;61.31
54546;BME280;40444;45.184;9.850;2022-08-03T23:16:00;100885.03;;;26.40;61.51
54546;BME280;40444;45.184;9.850;2022-08-03T23:18:34;100887.00;;;26.33;61.09
54546;BME280;40444;45.184;9.850;2022-08-03T23:21:05;100885.81;;;26.29;61.32
54546;BME280;40444;45.184;9.850;2022-08-03T23:23:38;100881.84;;;26.25;61.51
54546;BME280;40444;45.184;9.850;2022-08-03T23:26:12;100889.75;;;26.21;62.02
54546;BME280;40444;45.184;9.850;2022-08-03T23:28:44;100888.75;;;26.16;61.86
54546;BME280;40444;45.184;9.850;2022-08-03T23:31:14;100885.16;;;26.15;61.30
54546;BME280;40444;45.184;9.850;2022-08-03T23:33:44;100886.50;;;26.13;61.55
54546;BME280;40444;45.184;9.850;2022-08-03T23:36:16;100883.13;;;26.11;61.47
54546;BME280;40444;45.184;9.850;2022-08-03T23:39:00;100887.19;;;26.08;61.82
54546;BME280;40444;45.184;9.850;2022-08-03T23:41:30;100888.84;;;26.09;61.96
54546;BME280;40444;45.184;9.850;2022-08-03T23:44:02;100886.56;;;26.06;62.44
54546;BME280;40444;45.184;9.850;2022-08-03T23:46:31;100883.44;;;26.03;62.31
54546;BME280;40444;45.184;9.850;2022-08-03T23:49:00;100884.75;;;26.00;62.42
54546;BME280;40444;45.184;9.850;2022-08-03T23:51:50;100878.66;;;25.98;62.69
54546;BME280;40444;45.184;9.850;2022-08-03T23:57:43;100877.09;;;25.90;62.87
